sensor_id;sensor_type;location;lat;lon;timestamp;temperature;humidity
3492;DHT22;1760;52.480;13.422;2022-11-15T00:01:10;7.70;99.90
3492;DHT22;1760;52.480;13.422;2022-11-15T00:03:40;7.70;99.90
3492;DHT22;1760;52.480;13.422;2022-11-15T00:06:09;7.70;99.90
3492;DHT22;1760;52.480;13.422;2022-11-15T00:08:36;7.70;99.90
3492;DHT22;1760;52.480;13.422;2022-11-15T00:11:06;7.70;99.90
3492;DHT22;1760;52.480;13.422;2022-11-15T00:13:36;7.70;99.90
3492;DHT22;1760;52.480;13.422;2022-11-15T00:16:03;7.70;99.90
3492;DHT22;1760;52.480;13.422;2022-11-15T00:18:31;7.70;99.90
3492;DHT22;1760;52.480;13.422;2022-11-15T00:21:04;7.70;99.90
3492;DHT22;1760;52.480;13.422;2022-11-15T00:23:31;7.70;99.90
3492;DHT22;1760;52.480;13.422;2022-11-15T00:26:01;7.60;99.90
3492;DHT22;1760;52.480;13.422;2022-11-15T00:28:30;7.60;99.90
3492;DHT22;1760;52.480;13.422;2022-11-15T00:31:00;7.60;99.90
3492;DHT22;1760;52.480;13.422;2022-11-15T00:33:28;7.60;99.90
3492;DHT22;1760;52.480;13.422;2022-11-15T00:36:00;7.60;99.90
3492;DHT22;1760;52.480;13.422;2022-11-15T00:38:31;7.60;99.90
3492;DHT22;1760;52.480;13.422;2022-11-15T00:40:58;7.50;99.90
3492;DHT22;1760;52.480;13.422;2022-11-15T00:43:28;7.50;99.90
3492;DHT22;1760;52.480;13.422;2022-11-15T00:45:55;7.50;99.90
3492;DHT22;1760;52.480;13.422;2022-11-15T00:48:25;7.50;99.90
3492;DHT22;1760;52.480;13.422;2022-11-15T00:50:52;7.50;99.90
3492;DHT22;1760;52.480;13.422;2022-11-15T00:53:20;7.60;99.90
3492;DHT22;1760;52.480;13.422;2022-11-15T00:55:47;7.50;99.90
3492;DHT22;1760;52.480;13.422;2022-11-15T00:58:16;7.50;99.90
3492;DHT22;1760;52.480;13.422;2022-11-15T01:00:43;7.50;99.90
3492;DHT22;1760;52.480;13.422;2022-11-15T01:03:09;7.50;99.90
3492;DHT22;1760;52.480;13.422;2022-11-15T01:05:37;7.50;99.90
3492;DHT22;1760;52.480;13.422;2022-11-15T01:08:04;7.50;99.90
3492;DHT22;1760;52.480;13.422;2022-11-15T01:10:32;7.50;99.90
3492;DHT22;1760;52.480;13.422;2022-11-15T01:12:59;7.40;99.90
3492;DHT22;1760;52.480;13.422;2022-11-15T01:15:26;7.40;99.90
3492;DHT22;1760;52.480;13.422;2022-11-15T01:17:53;7.40;99.90
3492;DHT22;1760;52.480;13.422;2022-11-15T01:20:20;7.40;99.90
3492;DHT22;1760;52.480;13.422;2022-11-15T01:22:47;7.30;99.90
3492;DHT22;1760;52.480;13.422;2022-11-15T01:25:14;7.30;99.90
3492;DHT22;1760;52.480;13.422;2022-11-15T01:27:42;7.30;99.90
3492;DHT22;1760;52.480;13.422;2022-11-15T01:30:09;7.30;99.90
3492;DHT22;1760;52.480;13.422;2022-11-15T01:32:36;7.30;99.90
3492;DHT22;1760;52.480;13.422;2022-11-15T01:35:04;7.30;99.90
3492;DHT22;1760;52.480;13.422;2022-11-15T01:37:31;7.20;99.90
3492;DHT22;1760;52.480;13.422;2022-11-15T01:39:58;7.30;99.90
3492;DHT22;1760;52.480;13.422;2022-11-15T01:42:24;7.20;99.90
3492;DHT22;1760;52.480;13.422;2022-11-15T01:44:53;7.20;99.90
3492;DHT22;1760;52.480;13.422;2022-11-15T01:47:22;7.20;99.90
3492;DHT22;1760;52.480;13.422;2022-11-15T01:49:55;7.20;99.90
3492;DHT22;1760;52.480;13.422;2022-11-15T01:52:25;7.20;99.90
3492;DHT22;1760;52.480;13.422;2022-11-15T01:54:57;7.20;99.90
3492;DHT22;1760;52.480;13.422;2022-11-15T01:57:26;7.10;99.90
3492;DHT22;1760;52.480;13.422;2022-11-15T01:59:54;7.20;99.90
3492;DHT22;1760;52.480;13.422;2022-11-15T02:02:21;7.20;99.90
3492;DHT22;1760;52.480;13.422;2022-11-15T02:04:48;7.20;99.90
3492;DHT22;1760;52.480;13.422;2022-11-15T02:07:17;7.20;99.90
3492;DHT22;1760;52.480;13.422;2022-11-15T02:09:45;7.10;99.90
3492;DHT22;1760;52.480;13.422;2022-11-15T02:12:14;7.10;99.90
3492;DHT22;1760;52.480;13.422;2022-11-15T02:14:44;7.10;99.90
3492;DHT22;1760;52.480;13.422;2022-11-15T02:17:24;7.10;99.90
3492;DHT22;1760;52.480;13.422;2022-11-15T02:23:15;7.10;99.90
3492;DHT22;1760;52.480;13.422;2022-11-15T02:25:57;7.10;99.90
3492;DHT22;1760;52.480;13.422;2022-11-15T02:28:44;7.10;99.90
3492;DHT22;1760;52.480;13.422;2022-11-15T02:31:20;7.10;99.90
3492;DHT22;1760;52.480;13.422;2022-11-15T02:33:53;7.10;99.90
3492;DHT22;1760;52.480;13.422;2022-11-15T02:36:31;7.10;99.90
3492;DHT22;1760;52.480;13.422;2022-11-15T02:39:05;7.00;99.90
3492;DHT22;1760;52.480;13.422;2022-11-15T02:41:41;7.00;99.90
3492;DHT22;1760;52.480;13.422;2022-11-15T02:44:16;7.10;99.90
3492;DHT22;1760;52.480;13.422;2022-11-15T02:46:48;7.00;99.90
3492;DHT22;1760;52.480;13.422;2022-11-15T02:49:35;7.00;99.90
3492;DHT22;1760;52.480;13.422;2022-11-15T02:52:05;7.10;99.90
3492;DHT22;1760;52.480;13.422;2022-11-15T02:54:33;7.00;99.90
3492;DHT22;1760;52.480;13.422;2022-11-15T02:57:02;7.00;99.90
3492;DHT22;1760;52.480;13.422;2022-11-15T03:00:05;7.00;99.90
3492;DHT22;1760;52.480;13.422;2022-11-15T03:02:50;7.00;99.90
3492;DHT22;1760;52.480;13.422;2022-11-15T03:05:25;6.90;99.90
3492;DHT22;1760;52.480;13.422;2022-11-15T03:08:04;6.90;99.90
3492;DHT22;1760;52.480;13.422;2022-11-15T03:10:42;7.00;99.90
3492;DHT22;1760;52.480;13.422;2022-11-15T03:13:19;7.00;99.90
3492;DHT22;1760;52.480;13.422;2022-11-15T03:15:51;7.00;99.90
3492;DHT22;1760;52.480;13.422;2022-11-15T03:18:25;7.00;99.90
3492;DHT22;1760;52.480;13.422;2022-11-15T03:20:58;6.90;99.90
3492;DHT22;1760;52.480;13.422;2022-11-15T03:23:29;7.00;99.90
3492;DHT22;1760;52.480;13.422;2022-11-15T03:25:58;7.00;99.90
3492;DHT22;1760;52.480;13.422;2022-11-15T03:28:31;6.90;99.90
3492;DHT22;1760;52.480;13.422;2022-11-15T03:31:01;6.90;99.90
3492;DHT22;1760;52.480;13.422;2022-11-15T03:33:51;6.90;99.90
3492;DHT22;1760;52.480;13.422;2022-11-15T03:36:20;6.90;99.90
3492;DHT22;1760;52.480;13.422;2022-11-15T03:38:48;6.90;99.90
3492;DHT22;1760;52.480;13.422;2022-11-15T03:41:19;6.90;99.90
3492;DHT22;1760;52.480;13.422;2022-11-15T03:43:52;6.90;99.90
3492;DHT22;1760;52.480;13.422;2022-11-15T03:46:26;6.90;99.90
3492;DHT22;1760;52.480;13.422;2022-11-15T03:49:04;6.90;99.90
3492;DHT22;1760;52.480;13.422;2022-11-15T03:51:33;6.90;99.90
3492;DHT22;1760;52.480;13.422;2022-11-15T03:54:02;6.90;99.90
3492;DHT22;1760;52.480;13.422;2022-11-15T03:56:30;6.90;99.90
3492;DHT22;1760;52.480;13.422;2022-11-15T03:58:58;6.90;99.90
3492;DHT22;1760;52.480;13.422;2022-11-15T04:01:25;7.00;99.90
3492;DHT22;1760;52.480;13.422;2022-11-15T04:03:53;7.00;99.90
3492;DHT22;1760;52.480;13.422;2022-11-15T04:06:21;7.00;99.90
3492;DHT22;1760;52.480;13.422;2022-11-15T04:08:48;7.00;99.90
3492;DHT22;1760;52.480;13.422;2022-11-15T04:11:15;7.00;99.90
3492;DHT22;1760;52.480;13.422;2022-11-15T04:13:42;7.00;99.90
3492;DHT22;1760;52.480;13.422;2022-11-15T04:16:08;7.00;99.90
3492;DHT22;1760;52.480;13.422;2022-11-15T04:18:36;6.90;99.90
3492;DHT22;1760;52.480;13.422;2022-11-15T04:21:03;7.00;99.90
3492;DHT22;1760;52.480;13.422;2022-11-15T04:23:49;6.90;99.90
3492;DHT22;1760;52.480;13.422;2022-11-15T04:26:36;6.90;99.90
3492;DHT22;1760;52.480;13.422;2022-11-15T04:31:38;7.00;99.90
3492;DHT22;1760;52.480;13.422;2022-11-15T04:34:05;7.00;99.90
3492;DHT22;1760;52.480;13.422;2022-11-15T04:36:32;7.00;99.90
3492;DHT22;1760;52.480;13.422;2022-11-15T04:39:18;7.00;99.90
3492;DHT22;1760;52.480;13.422;2022-11-15T04:41:45;7.00;99.90
3492;DHT22;1760;52.480;13.422;2022-11-15T04:44:12;7.00;99.90
3492;DHT22;1760;52.480;13.422;2022-11-15T04:46:39;7.00;99.90
3492;DHT22;1760;52.480;13.422;2022-11-15T04:49:05;7.00;99.90
3492;DHT22;1760;52.480;13.422;2022-11-15T04:51:32;7.00;99.90
3492;DHT22;1760;52.480;13.422;2022-11-15T04:53:59;7.00;99.90
3492;DHT22;1760;52.480;13.422;2022-11-15T04:56:27;7.00;99.90
3492;DHT22;1760;52.480;13.422;2022-11-15T04:58:54;7.00;99.90
3492;DHT22;1760;52.480;13.422;2022-11-15T05:01:21;7.00;99.90
3492;DHT22;1760;52.480;13.422;2022-11-15T05:03:48;7.00;99.90
3492;DHT22;1760;52.480;13.422;2022-11-15T05:06:33;6.90;99.90
3492;DHT22;1760;52.480;13.422;2022-11-15T05:09:00;6.90;99.90
3492;DHT22;1760;52.480;13.422;2022-11-15T05:11:28;6.90;99.90
3492;DHT22;1760;52.480;13.422;2022-11-15T05:13:55;6.90;99.90
3492;DHT22;1760;52.480;13.422;2022-11-15T05:16:22;6.90;99.90
3492;DHT22;1760;52.480;13.422;2022-11-15T05:18:50;7.00;99.90
3492;DHT22;1760;52.480;13.422;2022-11-15T05:21:17;6.90;99.90
3492;DHT22;1760;52.480;13.422;2022-11-15T05:23:44;7.00;99.90
3492;DHT22;1760;52.480;13.422;2022-11-15T05:26:16;7.00;99.90
3492;DHT22;1760;52.480;13.422;2022-11-15T05:28:45;7.00;99.90
3492;DHT22;1760;52.480;13.422;2022-11-15T05:31:14;7.00;99.90
3492;DHT22;1760;52.480;13.422;2022-11-15T05:33:42;7.00;99.90
3492;DHT22;1760;52.480;13.422;2022-11-15T05:36:13;7.00;99.90
3492;DHT22;1760;52.480;13.422;2022-11-15T05:38:41;6.90;99.90
3492;DHT22;1760;52.480;13.422;2022-11-15T05:41:09;6.90;99.90
3492;DHT22;1760;52.480;13.422;2022-11-15T05:43:38;6.90;99.90
3492;DHT22;1760;52.480;13.422;2022-11-15T05:46:07;6.90;99.90
3492;DHT22;1760;52.480;13.422;2022-11-15T05:48:35;6.80;99.90
3492;DHT22;1760;52.480;13.422;2022-11-15T05:51:04;6.80;99.90
3492;DHT22;1760;52.480;13.422;2022-11-15T05:53:31;6.80;99.90
3492;DHT22;1760;52.480;13.422;2022-11-15T05:55:58;6.80;99.90
3492;DHT22;1760;52.480;13.422;2022-11-15T05:58:25;6.80;99.90
3492;DHT22;1760;52.480;13.422;2022-11-15T06:00:52;6.80;99.90
3492;DHT22;1760;52.480;13.422;2022-11-15T06:03:21;6.90;99.90
3492;DHT22;1760;52.480;13.422;2022-11-15T06:05:48;6.90;99.90
3492;DHT22;1760;52.480;13.422;2022-11-15T06:08:15;6.90;99.90
3492;DHT22;1760;52.480;13.422;2022-11-15T06:10:42;7.00;99.90
3492;DHT22;1760;52.480;13.422;2022-11-15T06:13:09;6.90;99.90
3492;DHT22;1760;52.480;13.422;2022-11-15T06:15:36;6.90;99.90
3492;DHT22;1760;52.480;13.422;2022-11-15T06:18:03;7.00;99.90
3492;DHT22;1760;52.480;13.422;2022-11-15T06:20:31;6.90;99.90
3492;DHT22;1760;52.480;13.422;2022-11-15T06:22:58;6.90;99.90
3492;DHT22;1760;52.480;13.422;2022-11-15T06:25:25;6.90;99.90
3492;DHT22;1760;52.480;13.422;2022-11-15T06:27:53;6.90;99.90
3492;DHT22;1760;52.480;13.422;2022-11-15T06:30:20;6.90;99.90
3492;DHT22;1760;52.480;13.422;2022-11-15T06:32:47;6.90;99.90
3492;DHT22;1760;52.480;13.422;2022-11-15T06:35:14;7.00;99.90
3492;DHT22;1760;52.480;13.422;2022-11-15T06:37:42;7.00;99.90
3492;DHT22;1760;52.480;13.422;2022-11-15T06:40:10;7.00;99.90
3492;DHT22;1760;52.480;13.422;2022-11-15T06:42:37;7.00;99.90
3492;DHT22;1760;52.480;13.422;2022-11-15T06:45:05;7.00;99.90
3492;DHT22;1760;52.480;13.422;2022-11-15T06:47:32;7.00;99.90
3492;DHT22;1760;52.480;13.422;2022-11-15T06:49:59;7.00;99.90
3492;DHT22;1760;52.480;13.422;2022-11-15T06:52:25;7.00;99.90
3492;DHT22;1760;52.480;13.422;2022-11-15T06:54:59;7.00;99.90
3492;DHT22;1760;52.480;13.422;2022-11-15T06:57:26;7.00;99.90
3492;DHT22;1760;52.480;13.422;2022-11-15T06:59:52;7.00;99.90
3492;DHT22;1760;52.480;13.422;2022-11-15T07:02:19;7.00;99.90
3492;DHT22;1760;52.480;13.422;2022-11-15T07:04:46;7.00;99.90
3492;DHT22;1760;52.480;13.422;2022-11-15T07:07:13;7.00;99.90
3492;DHT22;1760;52.480;13.422;2022-11-15T07:09:40;7.10;99.90
3492;DHT22;1760;52.480;13.422;2022-11-15T07:12:08;7.10;99.90
3492;DHT22;1760;52.480;13.422;2022-11-15T07:14:35;7.10;99.90
3492;DHT22;1760;52.480;13.422;2022-11-15T07:17:03;7.10;99.90
3492;DHT22;1760;52.480;13.422;2022-11-15T07:19:30;7.20;99.90
3492;DHT22;1760;52.480;13.422;2022-11-15T07:22:09;7.20;99.90
3492;DHT22;1760;52.480;13.422;2022-11-15T07:24:36;7.30;99.90
3492;DHT22;1760;52.480;13.422;2022-11-15T07:27:03;7.30;99.90
3492;DHT22;1760;52.480;13.422;2022-11-15T07:29:31;7.30;99.90
3492;DHT22;1760;52.480;13.422;2022-11-15T07:31:58;7.40;99.90
3492;DHT22;1760;52.480;13.422;2022-11-15T07:34:25;7.40;99.90
3492;DHT22;1760;52.480;13.422;2022-11-15T07:36:52;7.40;99.90
3492;DHT22;1760;52.480;13.422;2022-11-15T07:39:18;7.40;99.90
3492;DHT22;1760;52.480;13.422;2022-11-15T07:41:45;7.50;99.90
3492;DHT22;1760;52.480;13.422;2022-11-15T07:44:13;7.60;99.90
3492;DHT22;1760;52.480;13.422;2022-11-15T07:46:41;7.60;99.90
3492;DHT22;1760;52.480;13.422;2022-11-15T07:49:08;7.70;99.90
3492;DHT22;1760;52.480;13.422;2022-11-15T07:51:35;7.70;99.90
3492;DHT22;1760;52.480;13.422;2022-11-15T07:54:02;8.30;99.90
3492;DHT22;1760;52.480;13.422;2022-11-15T07:56:29;8.50;99.90
3492;DHT22;1760;52.480;13.422;2022-11-15T07:58:56;8.50;99.90
3492;DHT22;1760;52.480;13.422;2022-11-15T08:01:24;8.40;99.90
3492;DHT22;1760;52.480;13.422;2022-11-15T08:03:52;8.40;99.90
3492;DHT22;1760;52.480;13.422;2022-11-15T08:06:19;8.40;99.90
3492;DHT22;1760;52.480;13.422;2022-11-15T08:08:47;8.40;99.90
3492;DHT22;1760;52.480;13.422;2022-11-15T08:11:13;8.30;99.90
3492;DHT22;1760;52.480;13.422;2022-11-15T08:13:40;8.30;99.90
3492;DHT22;1760;52.480;13.422;2022-11-15T08:16:08;8.40;99.90
3492;DHT22;1760;52.480;13.422;2022-11-15T08:18:37;8.40;99.90
3492;DHT22;1760;52.480;13.422;2022-11-15T08:21:05;8.50;99.90
3492;DHT22;1760;52.480;13.422;2022-11-15T08:23:32;8.50;99.90
3492;DHT22;1760;52.480;13.422;2022-11-15T08:26:00;8.50;99.90
3492;DHT22;1760;52.480;13.422;2022-11-15T08:28:28;8.60;99.90
3492;DHT22;1760;52.480;13.422;2022-11-15T08:30:55;8.60;99.90
3492;DHT22;1760;52.480;13.422;2022-11-15T08:33:22;8.60;99.90
3492;DHT22;1760;52.480;13.422;2022-11-15T08:35:49;8.70;99.90
3492;DHT22;1760;52.480;13.422;2022-11-15T08:38:17;8.80;99.90
3492;DHT22;1760;52.480;13.422;2022-11-15T08:40:44;8.90;99.90
3492;DHT22;1760;52.480;13.422;2022-11-15T08:43:11;8.90;99.90
3492;DHT22;1760;52.480;13.422;2022-11-15T08:45:38;9.00;99.90
3492;DHT22;1760;52.480;13.422;2022-11-15T08:48:05;9.10;99.90
3492;DHT22;1760;52.480;13.422;2022-11-15T08:50:32;9.20;99.90
3492;DHT22;1760;52.480;13.422;2022-11-15T08:53:04;9.20;99.90
3492;DHT22;1760;52.480;13.422;2022-11-15T08:55:35;9.30;99.90
3492;DHT22;1760;52.480;13.422;2022-11-15T08:58:02;9.40;99.90
3492;DHT22;1760;52.480;13.422;2022-11-15T09:00:29;9.40;99.90
3492;DHT22;1760;52.480;13.422;2022-11-15T09:02:56;9.50;99.90
3492;DHT22;1760;52.480;13.422;2022-11-15T09:05:23;9.60;99.90
3492;DHT22;1760;52.480;13.422;2022-11-15T09:07:53;9.70;99.90
3492;DHT22;1760;52.480;13.422;2022-11-15T09:10:20;9.80;99.90
3492;DHT22;1760;52.480;13.422;2022-11-15T09:12:48;10.00;99.90
3492;DHT22;1760;52.480;13.422;2022-11-15T09:15:16;10.10;99.90
3492;DHT22;1760;52.480;13.422;2022-11-15T09:17:43;10.30;99.90
3492;DHT22;1760;52.480;13.422;2022-11-15T09:20:10;10.50;99.90
3492;DHT22;1760;52.480;13.422;2022-11-15T09:22:37;11.00;99.90
3492;DHT22;1760;52.480;13.422;2022-11-15T09:25:05;11.90;99.90
3492;DHT22;1760;52.480;13.422;2022-11-15T09:27:32;12.90;99.90
3492;DHT22;1760;52.480;13.422;2022-11-15T09:30:01;13.80;99.90
3492;DHT22;1760;52.480;13.422;2022-11-15T09:32:29;14.30;99.90
3492;DHT22;1760;52.480;13.422;2022-11-15T09:34:56;14.70;99.90
3492;DHT22;1760;52.480;13.422;2022-11-15T09:37:23;15.10;99.90
3492;DHT22;1760;52.480;13.422;2022-11-15T09:39:50;15.50;99.90
3492;DHT22;1760;52.480;13.422;2022-11-15T09:42:29;15.90;99.90
3492;DHT22;1760;52.480;13.422;2022-11-15T09:45:13;16.10;99.90
3492;DHT22;1760;52.480;13.422;2022-11-15T09:50:42;16.00;99.90
3492;DHT22;1760;52.480;13.422;2022-11-15T09:53:15;16.20;99.90
3492;DHT22;1760;52.480;13.422;2022-11-15T09:55:49;16.50;99.90
3492;DHT22;1760;52.480;13.422;2022-11-15T09:58:24;16.80;99.90
3492;DHT22;1760;52.480;13.422;2022-11-15T10:00:56;17.30;99.90
3492;DHT22;1760;52.480;13.422;2022-11-15T10:03:29;17.90;99.90
3492;DHT22;1760;52.480;13.422;2022-11-15T10:06:00;18.30;99.90
3492;DHT22;1760;52.480;13.422;2022-11-15T10:08:44;18.80;99.90
3492;DHT22;1760;52.480;13.422;2022-11-15T10:11:18;19.00;99.90
3492;DHT22;1760;52.480;13.422;2022-11-15T10:13:47;19.10;99.90
3492;DHT22;1760;52.480;13.422;2022-11-15T10:16:31;19.20;99.90
3492;DHT22;1760;52.480;13.422;2022-11-15T10:19:04;19.30;99.90
3492;DHT22;1760;52.480;13.422;2022-11-15T10:21:43;19.40;99.90
3492;DHT22;1760;52.480;13.422;2022-11-15T10:24:18;19.30;99.90
3492;DHT22;1760;52.480;13.422;2022-11-15T10:26:47;19.10;99.90
3492;DHT22;1760;52.480;13.422;2022-11-15T10:29:18;19.10;99.90
3492;DHT22;1760;52.480;13.422;2022-11-15T10:31:47;18.90;99.90
3492;DHT22;1760;52.480;13.422;2022-11-15T10:34:16;18.70;99.90
3492;DHT22;1760;52.480;13.422;2022-11-15T10:36:44;18.50;99.90
3492;DHT22;1760;52.480;13.422;2022-11-15T10:39:12;18.10;99.90
3492;DHT22;1760;52.480;13.422;2022-11-15T10:41:41;17.90;99.90
3492;DHT22;1760;52.480;13.422;2022-11-15T10:44:21;17.70;99.90
3492;DHT22;1760;52.480;13.422;2022-11-15T10:49:57;16.80;99.90
3492;DHT22;1760;52.480;13.422;2022-11-15T10:52:24;16.30;99.90
3492;DHT22;1760;52.480;13.422;2022-11-15T10:54:55;15.80;99.90
3492;DHT22;1760;52.480;13.422;2022-11-15T10:57:26;15.50;99.90
3492;DHT22;1760;52.480;13.422;2022-11-15T10:59:55;15.10;99.90
3492;DHT22;1760;52.480;13.422;2022-11-15T11:02:36;14.80;99.90
3492;DHT22;1760;52.480;13.422;2022-11-15T11:05:05;14.50;99.90
3492;DHT22;1760;52.480;13.422;2022-11-15T11:07:34;14.40;99.90
3492;DHT22;1760;52.480;13.422;2022-11-15T11:10:04;14.20;99.90
3492;DHT22;1760;52.480;13.422;2022-11-15T11:12:32;14.10;99.90
3492;DHT22;1760;52.480;13.422;2022-11-15T11:15:01;14.00;99.90
3492;DHT22;1760;52.480;13.422;2022-11-15T11:17:45;13.90;99.90
3492;DHT22;1760;52.480;13.422;2022-11-15T11:20:20;13.90;99.90
3492;DHT22;1760;52.480;13.422;2022-11-15T11:22:59;13.80;99.90
3492;DHT22;1760;52.480;13.422;2022-11-15T11:25:33;13.70;99.90
3492;DHT22;1760;52.480;13.422;2022-11-15T11:28:20;13.60;99.90
3492;DHT22;1760;52.480;13.422;2022-11-15T11:30:58;13.60;99.90
3492;DHT22;1760;52.480;13.422;2022-11-15T11:33:31;13.60;99.90
3492;DHT22;1760;52.480;13.422;2022-11-15T11:36:08;13.60;99.90
3492;DHT22;1760;52.480;13.422;2022-11-15T11:38:52;13.60;99.90
3492;DHT22;1760;52.480;13.422;2022-11-15T11:41:43;13.60;99.90
3492;DHT22;1760;52.480;13.422;2022-11-15T11:44:28;13.60;99.90
3492;DHT22;1760;52.480;13.422;2022-11-15T11:47:00;13.60;99.90
3492;DHT22;1760;52.480;13.422;2022-11-15T11:49:33;13.60;99.90
3492;DHT22;1760;52.480;13.422;2022-11-15T11:52:07;13.60;99.90
3492;DHT22;1760;52.480;13.422;2022-11-15T11:54:42;13.60;99.90
3492;DHT22;1760;52.480;13.422;2022-11-15T11:57:19;13.70;99.90
3492;DHT22;1760;52.480;13.422;2022-11-15T11:59:55;13.70;99.90
3492;DHT22;1760;52.480;13.422;2022-11-15T12:02:28;13.80;99.90
3492;DHT22;1760;52.480;13.422;2022-11-15T12:05:03;13.80;99.90
3492;DHT22;1760;52.480;13.422;2022-11-15T12:07:33;13.90;99.90
3492;DHT22;1760;52.480;13.422;2022-11-15T12:10:04;14.00;99.90
3492;DHT22;1760;52.480;13.422;2022-11-15T12:12:44;14.00;99.90
3492;DHT22;1760;52.480;13.422;2022-11-15T12:15:16;14.00;99.90
3492;DHT22;1760;52.480;13.422;2022-11-15T12:17:44;14.00;99.90
3492;DHT22;1760;52.480;13.422;2022-11-15T12:20:18;14.00;99.90
3492;DHT22;1760;52.480;13.422;2022-11-15T12:22:51;14.10;99.90
3492;DHT22;1760;52.480;13.422;2022-11-15T12:25:22;14.10;99.90
3492;DHT22;1760;52.480;13.422;2022-11-15T12:27:54;14.20;99.90
3492;DHT22;1760;52.480;13.422;2022-11-15T12:30:24;14.20;99.90
3492;DHT22;1760;52.480;13.422;2022-11-15T12:32:54;14.30;99.90
3492;DHT22;1760;52.480;13.422;2022-11-15T12:35:29;14.30;99.90
3492;DHT22;1760;52.480;13.422;2022-11-15T12:40:35;14.40;99.90
3492;DHT22;1760;52.480;13.422;2022-11-15T12:45:52;14.40;99.90
3492;DHT22;1760;52.480;13.422;2022-11-15T12:48:58;14.50;99.90
3492;DHT22;1760;52.480;13.422;2022-11-15T12:54:57;14.50;99.90
3492;DHT22;1760;52.480;13.422;2022-11-15T12:57:38;14.50;99.90
3492;DHT22;1760;52.480;13.422;2022-11-15T13:06:08;14.50;99.90
3492;DHT22;1760;52.480;13.422;2022-11-15T13:08:46;14.50;99.90
3492;DHT22;1760;52.480;13.422;2022-11-15T13:11:44;14.50;99.90
3492;DHT22;1760;52.480;13.422;2022-11-15T13:14:44;14.50;99.90
3492;DHT22;1760;52.480;13.422;2022-11-15T13:17:35;14.50;99.90
3492;DHT22;1760;52.480;13.422;2022-11-15T13:20:25;14.50;99.90
3492;DHT22;1760;52.480;13.422;2022-11-15T13:22:59;14.50;99.90
3492;DHT22;1760;52.480;13.422;2022-11-15T13:28:43;14.50;99.90
3492;DHT22;1760;52.480;13.422;2022-11-15T13:31:21;14.40;99.90
3492;DHT22;1760;52.480;13.422;2022-11-15T13:33:49;14.50;99.90
3492;DHT22;1760;52.480;13.422;2022-11-15T13:36:20;14.50;99.90
3492;DHT22;1760;52.480;13.422;2022-11-15T13:38:55;14.50;99.90
3492;DHT22;1760;52.480;13.422;2022-11-15T13:41:24;14.50;99.90
3492;DHT22;1760;52.480;13.422;2022-11-15T13:43:54;14.50;99.90
3492;DHT22;1760;52.480;13.422;2022-11-15T13:46:22;14.50;99.90
3492;DHT22;1760;52.480;13.422;2022-11-15T13:48:56;14.50;99.90
3492;DHT22;1760;52.480;13.422;2022-11-15T13:51:32;14.50;99.90
3492;DHT22;1760;52.480;13.422;2022-11-15T13:54:12;14.50;99.90
3492;DHT22;1760;52.480;13.422;2022-11-15T13:56:44;14.50;99.90
3492;DHT22;1760;52.480;13.422;2022-11-15T13:59:19;14.40;99.90
3492;DHT22;1760;52.480;13.422;2022-11-15T14:01:53;14.40;99.90
3492;DHT22;1760;52.480;13.422;2022-11-15T14:04:24;14.30;99.90
3492;DHT22;1760;52.480;13.422;2022-11-15T14:06:54;14.30;99.90
3492;DHT22;1760;52.480;13.422;2022-11-15T14:09:36;14.30;99.90
3492;DHT22;1760;52.480;13.422;2022-11-15T14:12:22;14.20;99.90
3492;DHT22;1760;52.480;13.422;2022-11-15T14:15:27;14.20;99.90
3492;DHT22;1760;52.480;13.422;2022-11-15T14:17:57;14.20;99.90
3492;DHT22;1760;52.480;13.422;2022-11-15T14:20:30;14.10;99.90
3492;DHT22;1760;52.480;13.422;2022-11-15T14:22:59;14.00;99.90
3492;DHT22;1760;52.480;13.422;2022-11-15T14:25:32;14.00;99.90
3492;DHT22;1760;52.480;13.422;2022-11-15T14:28:29;14.00;99.90
3492;DHT22;1760;52.480;13.422;2022-11-15T14:30:58;13.90;99.90
3492;DHT22;1760;52.480;13.422;2022-11-15T14:33:29;13.80;99.90
3492;DHT22;1760;52.480;13.422;2022-11-15T14:35:58;13.80;99.90
3492;DHT22;1760;52.480;13.422;2022-11-15T14:38:26;13.70;99.90
3492;DHT22;1760;52.480;13.422;2022-11-15T14:40:54;13.70;99.90
3492;DHT22;1760;52.480;13.422;2022-11-15T14:43:25;13.60;99.90
3492;DHT22;1760;52.480;13.422;2022-11-15T14:45:52;13.60;99.90
3492;DHT22;1760;52.480;13.422;2022-11-15T14:48:20;13.50;99.90
3492;DHT22;1760;52.480;13.422;2022-11-15T14:50:47;13.50;99.90
3492;DHT22;1760;52.480;13.422;2022-11-15T14:53:16;13.40;99.90
3492;DHT22;1760;52.480;13.422;2022-11-15T14:55:43;13.40;99.90
3492;DHT22;1760;52.480;13.422;2022-11-15T14:58:10;13.40;99.90
3492;DHT22;1760;52.480;13.422;2022-11-15T15:00:39;13.30;99.90
3492;DHT22;1760;52.480;13.422;2022-11-15T15:03:07;13.30;99.90
3492;DHT22;1760;52.480;13.422;2022-11-15T15:05:37;13.20;99.90
3492;DHT22;1760;52.480;13.422;2022-11-15T15:08:05;13.20;99.90
3492;DHT22;1760;52.480;13.422;2022-11-15T15:10:34;13.10;99.90
3492;DHT22;1760;52.480;13.422;2022-11-15T15:13:02;13.00;99.90
3492;DHT22;1760;52.480;13.422;2022-11-15T15:15:35;13.00;99.90
3492;DHT22;1760;52.480;13.422;2022-11-15T15:18:02;12.90;99.90
3492;DHT22;1760;52.480;13.422;2022-11-15T15:20:30;12.90;99.90
3492;DHT22;1760;52.480;13.422;2022-11-15T15:22:58;12.90;99.90
3492;DHT22;1760;52.480;13.422;2022-11-15T15:25:27;12.80;99.90
3492;DHT22;1760;52.480;13.422;2022-11-15T15:27:55;12.80;99.90
3492;DHT22;1760;52.480;13.422;2022-11-15T15:30:23;12.80;99.90
3492;DHT22;1760;52.480;13.422;2022-11-15T15:33:09;12.70;99.90
3492;DHT22;1760;52.480;13.422;2022-11-15T15:35:39;12.70;99.90
3492;DHT22;1760;52.480;13.422;2022-11-15T15:38:11;12.60;99.90
3492;DHT22;1760;52.480;13.422;2022-11-15T15:40:38;12.60;99.90
3492;DHT22;1760;52.480;13.422;2022-11-15T15:43:05;12.50;99.90
3492;DHT22;1760;52.480;13.422;2022-11-15T15:45:35;12.50;99.90
3492;DHT22;1760;52.480;13.422;2022-11-15T15:48:03;12.40;99.90
3492;DHT22;1760;52.480;13.422;2022-11-15T15:50:33;12.40;99.90
3492;DHT22;1760;52.480;13.422;2022-11-15T15:53:02;12.40;99.90
3492;DHT22;1760;52.480;13.422;2022-11-15T15:55:33;12.30;99.90
3492;DHT22;1760;52.480;13.422;2022-11-15T15:58:00;12.30;99.90
3492;DHT22;1760;52.480;13.422;2022-11-15T16:00:27;12.30;99.90
3492;DHT22;1760;52.480;13.422;2022-11-15T16:02:55;12.20;99.90
3492;DHT22;1760;52.480;13.422;2022-11-15T16:05:22;12.20;99.90
3492;DHT22;1760;52.480;13.422;2022-11-15T16:07:49;12.20;99.90
3492;DHT22;1760;52.480;13.422;2022-11-15T16:10:19;12.10;99.90
3492;DHT22;1760;52.480;13.422;2022-11-15T16:12:48;12.10;99.90
3492;DHT22;1760;52.480;13.422;2022-11-15T16:15:18;12.10;99.90
3492;DHT22;1760;52.480;13.422;2022-11-15T16:17:48;12.10;99.90
3492;DHT22;1760;52.480;13.422;2022-11-15T16:20:34;12.00;99.90
3492;DHT22;1760;52.480;13.422;2022-11-15T16:23:03;12.10;99.90
3492;DHT22;1760;52.480;13.422;2022-11-15T16:25:32;12.00;99.90
3492;DHT22;1760;52.480;13.422;2022-11-15T16:28:01;12.00;99.90
3492;DHT22;1760;52.480;13.422;2022-11-15T16:30:28;11.90;99.90
3492;DHT22;1760;52.480;13.422;2022-11-15T16:32:55;11.90;99.90
3492;DHT22;1760;52.480;13.422;2022-11-15T16:35:22;11.80;99.90
3492;DHT22;1760;52.480;13.422;2022-11-15T16:37:50;11.80;99.90
3492;DHT22;1760;52.480;13.422;2022-11-15T16:40:25;11.80;99.90
3492;DHT22;1760;52.480;13.422;2022-11-15T16:42:52;11.70;99.90
3492;DHT22;1760;52.480;13.422;2022-11-15T16:45:22;11.70;99.90
3492;DHT22;1760;52.480;13.422;2022-11-15T16:47:52;11.60;99.90